Novato, CA

12:04 PM PDT on October 24, 2014 (GMT -0700)
Tara Heights | Change Station
CLOSE
Current Station
Personal Weather Station
Location: Novato, CA
Elevation: 180 ft
Nearby Weather Stations

Elev 180 ft 38.12 °N, 122.58 °W | Updated 14 minutes ago

Clear
Clear
68.5 °F
Feels Like 68.5 °F
N
0.0
Wind Variable Wind from SE
Gusts 4.0 mph

Today
High -- | Low -- °F
--% Chance of Precip.
Yesterday
High -- | Low -- °F
Precip. -- in
7:27 AM 6:20 PM
New Moon, 1% visible
Pressure 29.97 in
Visibility 10.0 miles
Clouds Clear
Dew Point 56 °F
Humidity 65%
Rainfall 0.00 in
Snow Depth Not available.
UV 5 out of 12
Pollen 2.60 out of 12
Ozone Good
PM2.5 Good
Flu Activity Sporadic
METAR KO69 241855Z AUTO 16007KT 10SM CLR 21/12 A2997 RMK AO1

More Conditions Fewer Conditions

Pressure 29.97 in
Visibility 10.0 miles
Clouds Clear
Dew Point 56 °F
Humidity 65%
Rainfall 0.00 in
Snow Depth Not available.
UV 5 out of 12
Pollen 2.60 out of 12
Ozone Good
PM2.5 Good
Flu Activity Sporadic
METAR KO69 241855Z AUTO 16007KT 10SM CLR 21/12 A2997 RMK AO1

More Conditions Fewer Conditions

10-Day Weather Forecast

Almanac

Astronomy

Oct. 24, 2014 Rise Set
Actual Time 7:27 AM PDT 6:20 PM PDT
Civil Twilight 7:00 AM PDT 6:47 PM PDT
Nautical Twilight 6:30 AM PDT 7:17 PM PDT
Astronomical Twilight 5:59 AM PDT 7:48 PM PDT
Moon 8:11 AM PDT 7:04 PM PDT
Length of Visible Light 11h 46m
Length of Day
10h 52m
Tomorrow will be 2m 16s shorter.
New Moon, 1% of the Moon is Illuminated
Today
New Moon
Oct 30
First Quarter
Nov 6
Full
Nov 14
Last Quarter
Nov 22
New

Today's Extremes

State Highs State Lows

Community

WunderPhotos

Upload Photos

1,764,636 photos uploaded!

Nearby

Air Quality

  Air Quality AQ Index Pollutant
Yesterday Good
PM2.5
Yesterday Good
OZONE
Current Good
PM2.5
Current Good
OZONE
Friday Good
PM2.5
Saturday Good
OZONE
Sunday Moderate
PM2.5
Monday Moderate
PM2.5
Tuesday Moderate
PM2.5
Wednesday Moderate
PM2.5

Snow Depth

Station Depth Elevation
Ward Creek #3 9 in 6750 ft
Squaw Valley 0 in 8200 ft
Rubicon #2 0 in 7500 ft
Tahoe City Cross 0 in 6750 ft
Independence Camp 0 in 7000 ft

Earthquake Activity

City Distance Mag. Time & Date
No recent earthquake activity has been reported nearby.
Minimum magnitude displayed is 2.5.

Coastal Water Temperatures

Place Temperature
San Francisco, CA 63.0 °F
Richmond, CA 64.0 °F
Port Chicago, CA 66.0 °F

Nearby Weather Stations